Time;durP1;ratioP1;P1;durP2;ratioP2;P2;SDS_P1;SDS_P2;PMS_P1;PMS_P2;Temp;Humidity;BMP_temperature;BMP_pressure;BME280_temperature;BME280_humidity;BME280_pressure;Samples;Min_cycle;Max_cycle;Signal;HPM_P1;HPM_P2
2022/04/04 00:00:10;;;;;;;6.80;3.45;;;;;;;1.11;77.30;101859.69;5108881;28;20094;-65
2022/04/04 00:02:38;;;;;;;6.93;3.35;;;;;;;1.09;77.33;101853.56;5105590;28;20793;-64
2022/04/04 00:05:06;;;;;;;7.15;3.97;;;;;;;1.06;77.25;101848.31;5104327;28;20591;-65
2022/04/04 00:07:33;;;;;;;4.50;3.30;;;;;;;1.04;77.33;101844.81;5109253;28;20523;-64
2022/04/04 00:10:02;;;;;;;6.68;3.90;;;;;;;1.01;77.61;101840.41;5110245;28;20044;-65
2022/04/04 00:12:29;;;;;;;12.82;3.58;;;;;;;0.99;77.43;101839.50;5111421;28;20044;-63
2022/04/04 00:14:56;;;;;;;6.93;3.72;;;;;;;0.97;77.51;101841.16;5103283;28;20072;-63
2022/04/04 00:17:24;;;;;;;7.22;3.60;;;;;;;0.92;77.69;101835.88;5110734;28;20042;-63
2022/04/04 00:19:51;;;;;;;6.00;3.78;;;;;;;0.90;77.73;101832.34;5106762;28;20045;-63
2022/04/04 00:22:18;;;;;;;6.43;3.88;;;;;;;0.85;77.62;101826.16;5102536;28;20040;-66
2022/04/04 00:24:46;;;;;;;7.10;4.03;;;;;;;0.81;77.81;101815.66;5102923;28;20541;-65
2022/04/04 00:27:13;;;;;;;7.15;3.85;;;;;;;0.77;77.90;101817.28;5108492;28;20797;-65
2022/04/04 00:29:40;;;;;;;8.00;4.00;;;;;;;0.73;78.21;101811.13;5108674;28;20540;-66
2022/04/04 00:32:07;;;;;;;8.75;4.07;;;;;;;0.71;78.14;101814.53;5100755;28;20830;-65
2022/04/04 00:34:34;;;;;;;7.32;4.38;;;;;;;0.68;78.23;101812.75;5108667;28;20124;-66
2022/04/04 00:37:02;;;;;;;7.35;3.80;;;;;;;0.65;78.14;101804.00;5107064;28;20037;-66
2022/04/04 00:39:29;;;;;;;7.93;4.20;;;;;;;0.59;78.23;101802.13;5104013;28;20072;-65
2022/04/04 00:41:56;;;;;;;7.03;4.00;;;;;;;0.54;78.29;101801.09;5104273;28;20156;-65
2022/04/04 00:44:25;;;;;;;5.55;3.58;;;;;;;0.51;78.65;101799.31;5109548;28;20032;-65
2022/04/04 00:46:52;;;;;;;8.23;4.03;;;;;;;0.50;78.76;101794.97;5111024;28;20056;-65
2022/04/04 00:49:19;;;;;;;6.30;4.13;;;;;;;0.49;78.58;101789.75;5110927;28;20738;-64
2022/04/04 00:51:46;;;;;;;6.35;3.95;;;;;;;0.47;78.64;101784.50;5109415;28;20039;-65
2022/04/04 00:54:15;;;;;;;7.53;4.57;;;;;;;0.45;78.88;101787.06;5110841;28;20127;-66
2022/04/04 00:56:49;;;;;;;5.90;4.70;;;;;;;0.45;78.80;101783.59;5103562;28;20055;-65
2022/04/04 00:59:21;;;;;;;9.07;4.65;;;;;;;0.42;78.84;101779.19;5105218;28;20118;-66
2022/04/04 01:01:49;;;;;;;6.47;4.40;;;;;;;0.40;78.82;101775.69;5109918;28;20040;-66
2022/04/04 01:04:16;;;;;;;7.03;4.90;;;;;;;0.38;78.86;101777.38;5100278;28;20051;-66
2022/04/04 01:06:46;;;;;;;9.45;5.00;;;;;;;0.33;78.89;101771.16;5107035;28;20044;-65
2022/04/04 01:09:16;;;;;;;8.48;5.55;;;;;;;0.29;78.87;101762.41;5102101;28;20089;-65
2022/04/04 01:12:08;;;;;;;8.45;5.32;;;;;;;0.24;78.92;101761.44;5100004;28;20045;-65
2022/04/04 01:14:41;;;;;;;8.65;5.38;;;;;;;0.21;78.97;101752.66;5096300;28;20041;-64
2022/04/04 01:17:09;;;;;;;8.90;5.70;;;;;;;0.20;79.10;101749.22;5109830;28;20046;-65
2022/04/04 01:19:36;;;;;;;8.18;5.55;;;;;;;0.17;78.96;101746.53;5103611;28;20127;-64
2022/04/04 01:22:07;;;;;;;10.10;6.30;;;;;;;0.17;79.27;101751.72;5110949;28;20924;-64
2022/04/04 01:24:37;;;;;;;10.25;6.22;;;;;;;0.15;79.12;101737.84;5103469;28;20044;-65
2022/04/04 01:27:07;;;;;;;10.20;6.50;;;;;;;0.14;79.17;101730.91;5106475;28;20060;-65
2022/04/04 01:29:38;;;;;;;10.75;6.65;;;;;;;0.14;79.35;101731.75;5108020;28;20052;-66
2022/04/04 01:32:09;;;;;;;10.20;6.40;;;;;;;0.15;79.49;101719.69;5107931;28;20122;-64
2022/04/04 01:34:37;;;;;;;9.27;6.43;;;;;;;0.17;79.31;101720.59;5110766;28;20113;-65
2022/04/04 01:37:05;;;;;;;10.02;6.45;;;;;;;0.17;79.44;101709.34;5103722;28;20051;-66
2022/04/04 01:39:32;;;;;;;10.65;6.68;;;;;;;0.18;79.56;101714.56;5106595;28;20040;-64
2022/04/04 01:41:59;;;;;;;10.13;6.88;;;;;;;0.20;79.48;101712.03;5104689;28;20033;-64
2022/04/04 01:44:27;;;;;;;10.88;6.18;;;;;;;0.21;79.33;101693.91;5101383;27;20052;-64
2022/04/04 01:46:54;;;;;;;11.35;6.32;;;;;;;0.22;79.44;101694.78;5108263;28;20040;-63
2022/04/04 01:49:21;;;;;;;11.27;6.70;;;;;;;0.23;79.65;101692.25;5107407;28;20048;-63
2022/04/04 01:51:48;;;;;;;10.43;6.40;;;;;;;0.27;79.25;101685.41;5105126;28;20135;-64
2022/04/04 01:54:16;;;;;;;11.20;6.10;;;;;;;0.27;79.48;101682.81;5109913;28;20137;-64
2022/04/04 01:56:43;;;;;;;9.00;6.50;;;;;;;0.28;79.18;101677.66;5107444;28;20071;-64
2022/04/04 01:59:10;;;;;;;9.05;6.30;;;;;;;0.28;79.23;101669.88;5104742;28;20047;-64
2022/04/04 02:01:39;;;;;;;11.50;6.57;;;;;;;0.32;79.37;101665.63;5102625;28;20119;-64
2022/04/04 02:04:09;;;;;;;10.70;6.30;;;;;;;0.32;79.20;101654.41;5104878;28;20039;-64
2022/04/04 02:06:38;;;;;;;14.68;6.93;;;;;;;0.34;79.06;101644.94;5102038;28;20047;-64
2022/04/04 02:09:06;;;;;;;11.00;6.65;;;;;;;0.33;79.00;101644.06;5103217;28;20498;-64
2022/04/04 02:11:34;;;;;;;9.60;6.57;;;;;;;0.34;79.21;101639.75;5102523;28;20050;-64
2022/04/04 02:14:02;;;;;;;12.05;6.25;;;;;;;0.35;79.28;101637.19;5102455;28;20130;-64
2022/04/04 02:16:29;;;;;;;8.50;6.60;;;;;;;0.38;79.19;101626.91;5110650;28;20044;-65
2022/04/04 02:18:56;;;;;;;10.65;7.40;;;;;;;0.40;79.17;101627.81;5105325;28;20446;-64
2022/04/04 02:21:24;;;;;;;10.45;7.03;;;;;;;0.43;79.08;101620.09;5104191;28;20039;-64
2022/04/04 02:23:55;;;;;;;11.77;7.35;;;;;;;0.46;79.23;101619.28;5103095;28;20090;-64
2022/04/04 02:26:22;;;;;;;9.65;6.40;;;;;;;0.49;78.97;101614.16;5108201;28;20110;-64
2022/04/04 02:28:49;;;;;;;12.07;7.32;;;;;;;0.53;78.90;101616.00;5099913;28;20554;-66
2022/04/04 02:31:16;;;;;;;10.55;6.45;;;;;;;0.56;78.85;101597.03;5104679;28;20076;-65
2022/04/04 02:33:43;;;;;;;10.85;6.68;;;;;;;0.62;78.78;101591.97;5106216;28;20055;-65
2022/04/04 02:36:11;;;;;;;12.18;7.38;;;;;;;0.66;78.57;101591.22;5105061;28;20929;-66
2022/04/04 02:38:38;;;;;;;10.05;7.05;;;;;;;0.70;78.52;101592.16;5110254;28;20040;-66
2022/04/04 02:41:05;;;;;;;13.65;7.18;;;;;;;0.74;78.48;101575.81;5110789;28;20040;-66
2022/04/04 02:43:32;;;;;;;11.20;7.15;;;;;;;0.78;78.16;101577.63;5108373;28;20054;-66
2022/04/04 02:46:01;;;;;;;9.93;6.75;;;;;;;0.81;78.19;101572.50;5107080;28;20561;-65
2022/04/04 02:48:28;;;;;;;15.27;6.93;;;;;;;0.84;78.17;101562.19;5109593;28;20055;-65
2022/04/04 02:50:55;;;;;;;9.73;6.32;;;;;;;0.87;77.90;101559.63;5096177;28;20101;-65
2022/04/04 02:53:22;;;;;;;9.80;6.45;;;;;;;0.91;77.89;101560.59;5106561;28;20057;-66
2022/04/04 02:58:36;;;;;;;10.80;6.22;;;;;;;0.98;77.41;101549.50;5110755;28;20054;-65
2022/04/04 03:01:03;;;;;;;9.98;6.57;;;;;;;1.01;77.36;101544.38;5111251;28;20524;-65
2022/04/04 03:03:31;;;;;;;12.23;6.47;;;;;;;1.04;77.49;101536.63;5113433;28;20036;-64
2022/04/04 03:05:58;;;;;;;9.43;6.22;;;;;;;1.07;76.97;101528.91;5111279;28;20042;-66
2022/04/04 03:08:25;;;;;;;9.25;5.82;;;;;;;1.10;77.06;101532.41;5108567;28;20040;-64
2022/04/04 03:10:52;;;;;;;8.50;6.60;;;;;;;1.12;77.14;101526.41;5102721;28;20048;-64
2022/04/04 03:13:19;;;;;;;12.07;6.43;;;;;;;1.15;76.97;101513.47;5106208;28;20040;-63
2022/04/04 03:15:47;;;;;;;11.45;6.60;;;;;;;1.16;76.83;101515.22;5108660;28;20044;-66
2022/04/04 03:18:14;;;;;;;10.38;6.22;;;;;;;1.18;76.65;101510.91;5105592;28;20060;-65
2022/04/04 03:20:42;;;;;;;9.98;5.90;;;;;;;1.21;76.45;101508.38;5106499;28;20044;-65
2022/04/04 03:23:09;;;;;;;9.55;5.70;;;;;;;1.26;76.50;101503.28;5106173;28;20129;-64
2022/04/04 03:25:36;;;;;;;8.35;5.43;;;;;;;1.28;76.00;101496.41;5102071;28;20111;-64
2022/04/04 03:28:03;;;;;;;9.45;5.82;;;;;;;1.32;76.22;101498.22;5110639;28;20541;-64
2022/04/04 03:30:31;;;;;;;8.57;5.38;;;;;;;1.36;76.11;101487.00;5104061;28;20043;-64
2022/04/04 03:33:00;;;;;;;6.72;4.88;;;;;;;1.41;76.02;101481.03;5109746;28;20040;-64
2022/04/04 03:35:30;;;;;;;7.45;5.13;;;;;;;1.43;76.13;101475.00;5109673;28;20066;-65
2022/04/04 03:38:00;;;;;;;8.00;5.30;;;;;;;1.51;75.84;101477.75;5108989;28;20029;-65
2022/04/04 03:40:28;;;;;;;8.93;5.70;;;;;;;1.53;75.94;101470.84;5089096;28;20517;-65
2022/04/04 03:42:57;;;;;;;8.15;5.50;;;;;;;1.57;75.67;101469.19;5105011;28;20042;-65
2022/04/04 03:45:25;;;;;;;9.95;4.90;;;;;;;1.60;75.11;101453.63;5108935;28;20150;-65
2022/04/04 03:47:53;;;;;;;7.35;5.20;;;;;;;1.62;75.46;101451.94;5102101;28;20041;-66
2022/04/04 03:50:21;;;;;;;8.20;5.05;;;;;;;1.65;75.37;101452.84;5108198;27;20044;-65
2022/04/04 03:52:55;;;;;;;6.93;5.32;;;;;;;1.68;75.20;101444.22;5102136;28;20063;-66
2022/04/04 03:55:31;;;;;;;8.63;5.10;;;;;;;1.71;75.36;101444.28;5104763;28;20124;-66
2022/04/04 03:58:00;;;;;;;7.57;4.93;;;;;;;1.74;74.92;101433.03;5105721;28;20032;-66
2022/04/04 04:00:27;;;;;;;9.98;5.13;;;;;;;1.75;75.09;101433.09;5110610;28;20478;-66
2022/04/04 04:02:56;;;;;;;6.93;4.97;;;;;;;1.77;74.96;101423.59;5109011;28;20541;-65
2022/04/04 04:05:24;;;;;;;7.05;4.70;;;;;;;1.80;75.00;101420.16;5109628;28;20051;-64
2022/04/04 04:07:53;;;;;;;10.50;5.10;;;;;;;1.79;74.96;101415.81;5103808;28;20083;-64
2022/04/04 04:10:22;;;;;;;10.00;4.80;;;;;;;1.78;74.84;101406.25;5106287;27;20138;-64
2022/04/04 04:12:50;;;;;;;10.05;5.03;;;;;;;1.77;74.77;101409.69;5110517;28;20629;-64
2022/04/04 04:15:23;;;;;;;11.80;5.10;;;;;;;1.79;75.00;101413.22;5107515;28;20032;-64
2022/04/04 04:17:52;;;;;;;10.70;5.28;;;;;;;1.79;74.87;101397.59;5100101;28;20532;-63
2022/04/04 04:20:23;;;;;;;8.50;4.82;;;;;;;1.80;74.99;101401.97;5103386;28;20089;-64
2022/04/04 04:22:56;;;;;;;14.57;4.88;;;;;;;1.78;75.04;101399.31;5105306;28;20040;-63
2022/04/04 04:25:28;;;;;;;9.05;4.80;;;;;;;1.76;74.95;101387.16;5109743;28;20471;-64
2022/04/04 04:27:59;;;;;;;9.90;4.70;;;;;;;1.76;74.88;101389.75;5103229;28;20123;-65
2022/04/04 04:30:28;;;;;;;8.90;4.65;;;;;;;1.76;74.84;101385.44;5110517;28;20051;-63
2022/04/04 04:32:55;;;;;;;8.57;4.40;;;;;;;1.77;74.65;101376.78;5102353;28;20068;-64
2022/04/04 04:35:23;;;;;;;8.52;4.82;;;;;;;1.77;74.76;101373.31;5104532;28;20053;-63
2022/04/04 04:37:51;;;;;;;10.25;5.07;;;;;;;1.76;74.80;101361.16;5103629;28;20043;-63
2022/04/04 04:40:19;;;;;;;9.43;5.07;;;;;;;1.77;75.09;101361.19;5107722;28;20048;-65
2022/04/04 04:42:49;;;;;;;8.90;4.72;;;;;;;1.77;74.96;101360.31;5110194;28;20515;-64
2022/04/04 04:45:17;;;;;;;11.43;4.97;;;;;;;1.76;75.10;101354.25;5105822;28;20047;-63
2022/04/04 04:47:45;;;;;;;7.63;4.90;;;;;;;1.81;75.58;101349.09;5106042;28;20111;-64
2022/04/04 04:50:17;;;;;;;9.38;5.20;;;;;;;1.88;75.74;101347.47;5112222;27;20105;-64
2022/04/04 04:52:46;;;;;;;8.20;4.90;;;;;;;1.98;75.93;101337.19;5112659;28;20059;-65
2022/04/04 04:55:17;;;;;;;8.70;4.63;;;;;;;2.05;75.81;101332.97;5110670;28;20189;-64
2022/04/04 04:57:44;;;;;;;9.45;5.20;;;;;;;2.15;75.55;101327.03;5109316;28;20555;-64
2022/04/04 05:00:17;;;;;;;8.63;5.35;;;;;;;2.21;75.24;101321.00;5108608;28;20505;-65
2022/04/04 05:02:47;;;;;;;6.93;4.75;;;;;;;2.25;75.16;101307.16;5102732;28;20048;-64
2022/04/04 05:05:14;;;;;;;9.93;4.65;;;;;;;2.28;75.05;101307.22;5108038;28;20558;-64
2022/04/04 05:07:41;;;;;;;14.57;5.28;;;;;;;2.32;75.40;101305.50;5109309;28;20048;-64
2022/04/04 05:10:09;;;;;;;9.45;4.97;;;;;;;2.42;75.68;101304.75;5102255;28;20484;-65
2022/04/04 05:12:36;;;;;;;10.82;5.50;;;;;;;2.55;75.17;101294.47;5107368;28;20706;-64
2022/04/04 05:15:05;;;;;;;15.80;5.35;;;;;;;2.71;74.94;101300.72;5103660;28;20047;-65
2022/04/04 05:17:32;;;;;;;14.73;5.78;;;;;;;2.88;74.63;101293.06;5107479;28;20059;-65
2022/04/04 05:19:59;;;;;;;14.43;5.32;;;;;;;2.99;73.97;101281.00;5107128;27;20119;-65
2022/04/04 05:22:26;;;;;;;8.68;5.22;;;;;;;3.10;73.14;101284.53;5109815;28;20040;-65
2022/04/04 05:24:57;;;;;;;14.13;5.70;;;;;;;3.19;73.06;101283.75;5106257;28;20148;-65
2022/04/04 05:27:29;;;;;;;14.23;5.20;;;;;;;3.29;72.63;101271.69;5100761;28;20486;-65
2022/04/04 05:29:56;;;;;;;9.50;5.18;;;;;;;3.39;72.26;101267.38;5103256;28;20040;-65
2022/04/04 05:32:23;;;;;;;9.43;5.53;;;;;;;3.41;72.06;101256.09;5103654;28;20083;-64
2022/04/04 05:34:50;;;;;;;11.90;6.00;;;;;;;3.37;71.71;101254.34;5112142;27;20040;-66
2022/04/04 05:37:17;;;;;;;8.95;5.72;;;;;;;3.32;71.74;101256.03;5100070;28;20085;-68
2022/04/04 05:39:44;;;;;;;10.43;5.78;;;;;;;3.26;71.80;101249.03;5103997;28;20599;-66
2022/04/04 05:42:11;;;;;;;11.73;6.10;;;;;;;3.24;71.80;101244.69;5107400;28;20148;-66
2022/04/04 05:44:39;;;;;;;9.23;4.88;;;;;;;3.21;71.93;101242.94;5111606;28;20047;-66
2022/04/04 05:47:09;;;;;;;13.95;5.70;;;;;;;3.20;72.35;101229.91;5111214;28;20040;-65
2022/04/04 05:49:37;;;;;;;8.65;5.55;;;;;;;3.21;72.40;101221.22;5111695;28;20036;-65
2022/04/04 05:52:04;;;;;;;9.80;5.78;;;;;;;3.22;72.48;101213.44;5106514;28;20094;-66
2022/04/04 05:54:31;;;;;;;10.77;5.70;;;;;;;3.23;72.29;101215.16;5111147;28;20040;-65
2022/04/04 05:56:59;;;;;;;9.70;5.72;;;;;;;3.24;72.10;101210.81;5105228;28;20115;-66
2022/04/04 05:59:28;;;;;;;11.35;5.60;;;;;;;3.27;72.20;101200.44;5110836;28;20105;-65
2022/04/04 06:01:55;;;;;;;15.82;6.15;;;;;;;3.34;72.00;101199.59;5109913;28;20129;-65
2022/04/04 06:04:23;;;;;;;11.40;6.30;;;;;;;3.38;71.95;101196.16;5101474;28;20044;-64
2022/04/04 06:06:50;;;;;;;12.02;6.00;;;;;;;3.44;72.03;101190.09;5097028;28;20044;-65
2022/04/04 06:09:17;;;;;;;9.23;6.03;;;;;;;3.53;72.00;101179.69;5104118;28;20071;-65
2022/04/04 06:11:44;;;;;;;10.95;6.30;;;;;;;3.61;71.83;101177.13;5101595;28;20040;-65
2022/04/04 06:14:11;;;;;;;12.40;6.20;;;;;;;3.68;71.42;101180.59;5105178;28;20040;-67
2022/04/04 06:16:38;;;;;;;15.80;7.22;;;;;;;3.71;71.15;101175.41;5107327;28;20059;-66
2022/04/04 06:19:05;;;;;;;10.55;6.50;;;;;;;3.72;71.33;101172.81;5095934;28;20490;-66
2022/04/04 06:21:32;;;;;;;13.48;6.90;;;;;;;3.76;71.39;101167.59;5101055;28;20040;-66
2022/04/04 06:23:59;;;;;;;13.80;7.13;;;;;;;3.77;71.36;101170.22;5094993;28;20052;-66
2022/04/04 06:26:28;;;;;;;12.95;6.38;;;;;;;3.78;71.17;101166.72;5106239;28;20148;-66
2022/04/04 06:28:56;;;;;;;14.88;6.60;;;;;;;3.81;71.41;101160.69;5106533;28;20064;-66
2022/04/04 06:31:23;;;;;;;11.35;6.75;;;;;;;3.85;70.93;101154.59;5104936;28;20052;-66
2022/04/04 06:33:50;;;;;;;10.40;6.82;;;;;;;3.89;70.81;101153.75;5092385;28;20119;-66
2022/04/04 06:36:17;;;;;;;13.05;7.57;;;;;;;3.97;70.63;101149.41;5099667;28;20071;-66
2022/04/04 06:38:44;;;;;;;11.70;6.85;;;;;;;4.10;70.46;101152.91;5101151;28;20541;-67
2022/04/04 06:41:11;;;;;;;16.30;6.68;;;;;;;4.24;70.28;101147.69;5111372;28;20039;-66
2022/04/04 06:43:38;;;;;;;14.55;7.10;;;;;;;4.45;69.42;101145.97;5104370;28;20044;-66
2022/04/04 06:46:06;;;;;;;23.13;7.53;;;;;;;4.66;69.28;101140.72;5099007;28;20060;-67
2022/04/04 06:48:33;;;;;;;21.90;7.40;;;;;;;4.87;69.07;101141.56;5098481;28;20038;-66
2022/04/04 06:51:01;;;;;;;12.15;6.82;;;;;;;5.05;68.53;101132.84;5109338;28;20107;-66
2022/04/04 06:53:29;;;;;;;11.60;7.22;;;;;;;5.15;67.70;101122.34;5102082;28;20045;-66
2022/04/04 06:55:56;;;;;;;8.07;5.93;;;;;;;5.18;67.68;101120.59;5104973;28;20037;-66
2022/04/04 06:58:26;;;;;;;12.27;7.05;;;;;;;5.18;67.43;101119.72;5107327;28;20124;-67
2022/04/04 07:00:53;;;;;;;10.82;6.93;;;;;;;5.20;67.66;101108.38;5109475;28;20102;-66
2022/04/04 07:03:20;;;;;;;10.75;6.70;;;;;;;5.29;67.27;101103.13;5109139;28;20033;-66
2022/04/04 07:05:49;;;;;;;10.23;6.22;;;;;;;5.41;67.36;101110.03;5110995;28;20836;-66
2022/04/04 07:08:16;;;;;;;21.08;6.75;;;;;;;5.60;66.31;101097.75;5110447;28;20123;-66
2022/04/04 07:10:44;;;;;;;12.23;7.10;;;;;;;5.74;66.23;101100.28;5111274;28;20037;-66
2022/04/04 07:13:11;;;;;;;30.38;7.32;;;;;;;5.82;65.12;101087.16;5111934;28;20418;-66
2022/04/04 07:15:39;;;;;;;28.17;7.35;;;;;;;5.89;65.47;101098.44;5111425;28;20055;-66
2022/04/04 07:18:06;;;;;;;16.02;6.65;;;;;;;5.95;65.02;101087.94;5106590;28;20485;-66
2022/04/04 07:20:33;;;;;;;18.13;7.03;;;;;;;6.00;64.96;101069.59;5107224;28;20051;-66
2022/04/04 07:23:01;;;;;;;21.52;7.03;;;;;;;6.07;64.76;101073.91;5105883;28;20066;-66
2022/04/04 07:25:28;;;;;;;15.30;6.22;;;;;;;6.13;63.71;101070.38;5079637;28;20112;-66
2022/04/04 07:27:55;;;;;;;23.25;7.55;;;;;;;6.15;64.07;101071.22;5082876;28;20116;-66
2022/04/04 07:30:23;;;;;;;12.20;6.10;;;;;;;6.16;63.29;101049.41;5080540;28;20135;-66
2022/04/04 07:32:52;;;;;;;21.35;5.85;;;;;;;6.20;62.98;101051.13;5090674;28;20053;-67
2022/04/04 07:35:21;;;;;;;14.30;6.43;;;;;;;6.30;62.63;101050.16;5081779;28;20044;-67
2022/04/04 07:37:50;;;;;;;22.40;5.95;;;;;;;6.36;61.69;101042.25;5090687;28;20049;-67
2022/04/04 07:40:20;;;;;;;14.55;6.10;;;;;;;6.37;61.74;101051.84;5081433;28;20048;-67
2022/04/04 07:42:48;;;;;;;34.60;7.30;;;;;;;6.45;61.19;101038.69;5079860;28;20037;-67
2022/04/04 07:45:17;;;;;;;18.65;6.20;;;;;;;6.51;61.11;101029.88;5091486;28;20093;-67
2022/04/04 07:47:46;;;;;;;12.00;5.72;;;;;;;6.60;61.42;101035.03;5091636;28;20041;-67
2022/04/04 07:50:15;;;;;;;13.90;5.60;;;;;;;6.65;60.35;101033.22;5091260;28;20410;-67
2022/04/04 07:52:43;;;;;;;13.68;6.00;;;;;;;6.76;60.82;101017.38;5092667;28;20037;-67
2022/04/04 07:55:10;;;;;;;14.75;5.65;;;;;;;6.88;60.55;101020.72;5086438;28;20049;-67
2022/04/04 07:57:39;;;;;;;15.23;5.88;;;;;;;7.02;60.60;101020.56;5090570;28;20521;-67
2022/04/04 08:00:08;;;;;;;9.73;5.07;;;;;;;7.17;59.75;101022.13;5074397;28;20045;-67
2022/04/04 08:02:38;;;;;;;21.50;5.85;;;;;;;7.26;60.15;101009.75;5090285;28;20129;-67
2022/04/04 08:05:08;;;;;;;10.50;4.95;;;;;;;7.29;59.63;101016.69;5087345;28;20123;-67
2022/04/04 08:07:36;;;;;;;13.82;4.95;;;;;;;7.28;59.08;101004.47;5090410;28;20123;-66
2022/04/04 08:10:04;;;;;;;11.05;5.15;;;;;;;7.30;58.86;100993.09;5079516;28;20047;-67
2022/04/04 08:12:31;;;;;;;17.52;5.65;;;;;;;7.30;58.37;100982.59;5091033;28;20048;-68
2022/04/04 08:14:59;;;;;;;14.07;5.45;;;;;;;7.32;58.88;100992.22;5085841;28;20121;-67
2022/04/04 08:17:26;;;;;;;12.50;5.50;;;;;;;7.35;58.63;100977.28;5073999;28;20045;-66
2022/04/04 08:19:54;;;;;;;17.00;5.25;;;;;;;7.40;58.80;100980.69;5092477;28;20039;-67
2022/04/04 08:22:22;;;;;;;53.47;6.95;;;;;;;7.43;58.26;100967.53;5093268;28;20055;-67
2022/04/04 08:24:50;;;;;;;14.50;5.43;;;;;;;7.46;57.99;100954.41;5104207;28;20044;-67
2022/04/04 08:27:17;;;;;;;11.07;5.15;;;;;;;7.53;57.73;100954.28;5106306;28;20131;-66
2022/04/04 08:29:44;;;;;;;19.15;8.02;;;;;;;7.57;57.50;100946.34;5101332;28;20118;-67
2022/04/04 08:32:12;;;;;;;23.73;8.43;;;;;;;7.64;57.65;100952.34;5113940;28;20055;-66
2022/04/04 08:34:40;;;;;;;21.20;6.40;;;;;;;7.76;57.67;100938.16;5109755;28;20074;-67
2022/04/04 08:37:08;;;;;;;9.75;6.15;;;;;;;7.92;57.65;100930.88;5101719;28;20123;-67
2022/04/04 08:39:35;;;;;;;12.65;8.68;;;;;;;8.05;57.29;100923.63;5110456;28;20492;-67
2022/04/04 08:42:04;;;;;;;19.95;6.85;;;;;;;8.22;57.26;100925.97;5102051;28;20033;-67
2022/04/04 08:44:36;;;;;;;8.48;5.28;;;;;;;8.32;56.05;100910.91;5106847;28;20051;-68
2022/04/04 08:47:06;;;;;;;15.70;6.45;;;;;;;8.31;55.71;100901.28;5111576;28;20549;-67
2022/04/04 08:49:36;;;;;;;14.00;6.00;;;;;;;8.22;56.18;100904.94;5109177;28;20090;-66
2022/04/04 08:52:04;;;;;;;12.38;7.15;;;;;;;8.14;57.01;100896.34;5112319;28;20036;-68
2022/04/04 08:54:31;;;;;;;9.57;5.57;;;;;;;8.04;56.33;100893.03;5111786;27;20048;-67
2022/04/04 08:56:58;;;;;;;16.58;6.25;;;;;;;7.93;57.34;100888.88;5102833;28;20066;-67
2022/04/04 08:59:25;;;;;;;17.40;6.88;;;;;;;7.88;57.23;100861.81;5107340;28;20054;-67
2022/04/04 09:01:53;;;;;;;16.10;9.20;;;;;;;7.84;57.08;100875.03;5111130;28;20040;-68
2022/04/04 09:04:22;;;;;;;14.57;7.32;;;;;;;7.83;57.08;100875.94;5101548;28;20051;-66
2022/04/04 09:06:54;;;;;;;12.93;5.93;;;;;;;7.74;57.60;100871.69;5101255;28;20107;-67
2022/04/04 09:09:36;;;;;;;9.98;5.63;;;;;;;7.75;57.49;100873.44;5101929;28;20040;-67
2022/04/04 09:12:11;;;;;;;11.25;5.60;;;;;;;7.69;57.14;100871.78;5101542;28;20051;-68
2022/04/04 09:14:58;;;;;;;14.40;6.22;;;;;;;7.71;57.99;100863.91;5101921;28;20055;-66
2022/04/04 09:17:32;;;;;;;8.82;5.07;;;;;;;7.74;57.16;100858.56;5112324;28;20040;-66
2022/04/04 09:20:10;;;;;;;17.63;5.75;;;;;;;7.69;57.32;100849.94;5112005;28;20573;-66
2022/04/04 09:22:53;;;;;;;11.90;5.20;;;;;;;7.67;57.52;100849.97;5099267;28;20185;-67
2022/04/04 09:25:31;;;;;;;18.58;5.40;;;;;;;7.64;56.90;100846.50;5111844;28;20036;-67
2022/04/04 09:28:17;;;;;;;22.85;5.57;;;;;;;7.69;57.02;100845.53;5104519;28;20938;-68
2022/04/04 09:31:06;;;;;;;24.45;5.90;;;;;;;7.77;56.45;100822.66;5098771;28;20716;-68
2022/04/04 09:33:39;;;;;;;18.75;5.80;;;;;;;7.77;56.37;100830.53;5107026;28;20522;-68
2022/04/04 09:36:08;;;;;;;18.75;5.80;;;;;;;7.80;56.72;100832.25;5104551;28;20045;-67
2022/04/04 09:38:36;;;;;;;21.00;5.43;;;;;;;7.76;56.61;100839.31;5102885;28;20071;-67
2022/04/04 09:41:19;;;;;;;19.10;5.35;;;;;;;7.71;57.23;100841.13;5104242;28;20051;-66
2022/04/04 09:43:55;;;;;;;12.40;5.30;;;;;;;7.64;57.82;100834.28;5096603;28;20098;-68
2022/04/04 09:46:23;;;;;;;10.30;7.70;;;;;;;7.59;58.47;100833.47;5102824;28;20626;-67
2022/04/04 09:49:17;;;;;;;14.57;5.28;;;;;;;7.52;59.52;100837.13;5097317;28;20108;-67
2022/04/04 09:51:54;;;;;;;12.13;6.25;;;;;;;7.41;60.50;100827.69;5097535;28;20048;-67
2022/04/04 09:54:23;;;;;;;10.00;5.57;;;;;;;7.33;60.98;100820.81;5093490;28;20560;-66
2022/04/04 09:57:10;;;;;;;11.20;5.72;;;;;;;7.28;62.10;100821.78;5111851;28;20041;-66
2022/04/04 09:59:39;;;;;;;11.68;5.40;;;;;;;7.27;62.50;100825.28;5101736;28;20454;-68
2022/04/04 10:02:12;;;;;;;10.05;5.85;;;;;;;7.23;63.15;100818.34;5111557;28;20486;-69
2022/04/04 10:04:44;;;;;;;11.30;6.30;;;;;;;7.18;63.29;100824.56;5111173;28;20404;-66
2022/04/04 10:07:16;;;;;;;9.15;6.10;;;;;;;7.13;64.15;100820.28;5111396;28;20499;-69
2022/04/04 10:09:45;;;;;;;8.65;6.00;;;;;;;7.08;64.44;100818.63;5096270;28;20040;-69
2022/04/04 10:12:14;;;;;;;12.43;6.10;;;;;;;7.02;65.30;100806.47;5092393;28;20172;-68
2022/04/04 10:14:42;;;;;;;12.60;7.22;;;;;;;6.97;65.40;100817.03;5108828;28;20044;-67
2022/04/04 10:17:10;;;;;;;9.80;6.72;;;;;;;6.96;65.93;100806.59;5106525;28;20051;-67
2022/04/04 10:19:40;;;;;;;9.90;6.55;;;;;;;6.96;65.96;100802.19;5096659;28;20722;-66
2022/04/04 10:22:08;;;;;;;10.73;6.30;;;;;;;6.95;66.30;100795.22;5112107;28;20497;-67
2022/04/04 10:24:36;;;;;;;10.68;6.95;;;;;;;6.95;66.61;100805.72;5110124;28;20067;-67
2022/04/04 10:27:12;;;;;;;11.77;7.38;;;;;;;6.93;66.99;100796.16;5102525;28;20072;-68
2022/04/04 10:29:44;;;;;;;11.80;6.75;;;;;;;6.95;67.14;100787.34;5109533;28;20048;-67
2022/04/04 10:32:28;;;;;;;11.15;7.10;;;;;;;6.96;67.50;100785.63;5103926;28;20230;-68
2022/04/04 10:34:55;;;;;;;11.50;6.80;;;;;;;6.94;67.37;100787.41;5104808;28;20135;-66
2022/04/04 10:37:29;;;;;;;12.18;7.50;;;;;;;6.91;67.57;100795.28;5103985;28;20051;-67
2022/04/04 10:39:56;;;;;;;10.85;7.07;;;;;;;6.90;67.79;100789.22;5111249;28;20067;-67
2022/04/04 10:42:36;;;;;;;12.57;7.40;;;;;;;6.90;68.38;100788.31;5103834;28;20040;-66
2022/04/04 10:45:11;;;;;;;12.68;6.97;;;;;;;6.88;68.70;100783.13;5110553;28;20059;-66
2022/04/04 10:47:42;;;;;;;13.10;6.97;;;;;;;6.90;68.54;100788.31;5108936;28;20074;-68
2022/04/04 10:50:22;;;;;;;14.65;7.55;;;;;;;6.82;68.85;100768.34;5105878;28;20036;-67
2022/04/04 10:52:51;;;;;;;13.82;7.28;;;;;;;6.79;68.91;100776.25;5101383;28;20055;-67
2022/04/04 10:55:27;;;;;;;11.82;8.10;;;;;;;6.77;69.15;100772.78;5105628;28;20051;-68
2022/04/04 10:58:11;;;;;;;10.93;7.75;;;;;;;6.78;70.06;100777.13;5111505;28;20127;-67
2022/04/04 11:01:07;;;;;;;13.48;7.93;;;;;;;6.75;70.23;100764.09;5111618;28;20537;-67
2022/04/04 11:03:52;;;;;;;13.88;7.63;;;;;;;6.73;70.70;100765.88;5109124;28;20076;-67
2022/04/04 11:09:47;;;;;;;13.25;8.27;;;;;;;6.73;71.25;100758.03;5108636;28;20040;-67
2022/04/04 11:12:14;;;;;;;10.63;7.05;;;;;;;6.72;71.54;100761.53;5103607;28;20044;-66
2022/04/04 11:14:43;;;;;;;14.27;8.25;;;;;;;6.71;71.79;100751.94;5111042;28;20075;-66
2022/04/04 11:17:33;;;;;;;13.50;7.88;;;;;;;6.72;71.96;100744.91;5104429;27;20048;-67
2022/04/04 11:20:31;;;;;;;9.90;7.50;;;;;;;6.68;72.58;100744.09;5110850;28;20036;-66
2022/04/04 11:23:08;;;;;;;12.48;7.57;;;;;;;6.68;72.46;100746.72;5106342;28;20475;-67
2022/04/04 11:25:38;;;;;;;12.85;7.90;;;;;;;6.68;72.34;100737.13;5110176;28;20048;-67
2022/04/04 11:28:07;;;;;;;9.82;7.28;;;;;;;6.71;72.58;100730.97;5102156;28;20054;-67
2022/04/04 11:30:35;;;;;;;11.85;7.25;;;;;;;6.68;72.91;100733.63;5114249;28;20040;-66
2022/04/04 11:33:02;;;;;;;9.63;6.70;;;;;;;6.64;73.29;100738.06;5112362;28;20465;-66
2022/04/04 11:35:32;;;;;;;10.57;7.40;;;;;;;6.60;73.46;100735.50;5113139;28;20042;-65
2022/04/04 11:38:07;;;;;;;8.18;6.00;;;;;;;6.53;73.83;100725.13;5107823;28;20526;-66
2022/04/04 11:40:39;;;;;;;;;;;;;;;6.49;73.88;100723.44;5103523;28;20063;-67
2022/04/04 11:43:13;;;;;;;8.85;6.47;;;;;;;6.50;74.06;100726.94;5110471;28;20799;-66
2022/04/04 11:45:43;;;;;;;8.43;6.38;;;;;;;6.50;73.82;100726.94;5106803;28;20040;-66